Time;durP1;ratioP1;P1;durP2;ratioP2;P2;SDS_P1;SDS_P2;PMS_P1;PMS_P2;Temp;Humidity;BMP_temperature;BMP_pressure;BME280_temperature;BME280_humidity;BME280_pressure;Samples;Min_cycle;Max_cycle;Signal;HPM_P1;HPM_P2
2023/08/23 00:00:47;;;;;;;6.60;3.00;;;;;;;16.50;72.24;101022.06;111139;1209;98275;-65
2023/08/23 00:03:12;;;;;;;7.20;2.60;;;;;;;16.47;72.34;101015.77;111083;1208;97495;-65
2023/08/23 00:05:38;;;;;;;6.90;3.00;;;;;;;16.43;72.28;101009.17;111056;1211;138472;-65
2023/08/23 00:08:03;;;;;;;12.90;3.80;;;;;;;16.39;72.46;101007.81;111163;1209;97584;-65
2023/08/23 00:10:28;;;;;;;11.40;3.00;;;;;;;16.37;72.66;101010.08;111041;1208;139471;-65
2023/08/23 00:12:56;;;;;;;13.40;2.90;;;;;;;16.38;72.69;101010.95;111281;1211;97627;-65
2023/08/23 00:15:21;;;;;;;3.90;2.50;;;;;;;16.38;72.80;101012.89;111185;1209;100084;-65
2023/08/23 00:17:46;;;;;;;10.00;3.10;;;;;;;16.37;72.86;101008.81;111034;1210;139190;-65
2023/08/23 00:20:12;;;;;;;7.70;3.00;;;;;;;16.36;73.06;101009.81;111300;1206;96146;-65
2023/08/23 00:22:37;;;;;;;6.60;2.90;;;;;;;16.34;72.94;101010.29;111024;1211;138463;-65
2023/08/23 00:25:03;;;;;;;8.80;2.70;;;;;;;16.31;73.09;101009.56;111315;1208;97603;-66
2023/08/23 00:27:28;;;;;;;9.30;2.80;;;;;;;16.28;73.09;101013.73;111230;1211;97693;-65
2023/08/23 00:29:54;;;;;;;7.50;3.10;;;;;;;16.23;73.05;101013.63;111101;1211;139139;-65
2023/08/23 00:32:19;;;;;;;11.30;3.40;;;;;;;16.21;73.12;101016.83;111107;1211;97696;-65
2023/08/23 00:34:44;;;;;;;8.00;3.00;;;;;;;16.19;73.24;101013.91;111092;1207;138806;-65
2023/08/23 00:37:09;;;;;;;7.60;2.80;;;;;;;16.17;73.36;101007.36;111179;1208;98021;-65
2023/08/23 00:39:35;;;;;;;6.50;3.00;;;;;;;16.15;73.53;101007.29;111126;1211;97697;-65
2023/08/23 00:42:00;;;;;;;10.00;3.50;;;;;;;16.13;73.67;101002.03;111127;1211;138396;-65
2023/08/23 00:44:25;;;;;;;8.90;3.10;;;;;;;16.13;73.82;101007.98;111145;1211;97677;-65
2023/08/23 00:46:50;;;;;;;9.90;3.70;;;;;;;16.14;73.90;101005.05;111012;1208;139030;-65
2023/08/23 00:49:16;;;;;;;5.40;2.70;;;;;;;16.13;73.90;101002.73;111176;1208;97627;-66
2023/08/23 00:51:42;;;;;;;9.30;3.20;;;;;;;16.13;73.91;101001.86;111201;1209;97756;-65
2023/08/23 00:54:09;;;;;;;7.40;2.50;;;;;;;16.08;74.10;101003.55;111095;1206;140010;-65
2023/08/23 00:56:36;;;;;;;6.20;2.70;;;;;;;16.07;74.13;101000.59;111105;1210;97667;-65
2023/08/23 00:59:02;;;;;;;8.80;3.20;;;;;;;16.06;74.15;101003.36;111088;1210;139704;-65
2023/08/23 01:01:27;;;;;;;8.80;3.00;;;;;;;16.05;74.35;100999.96;111153;1211;108070;-65
2023/08/23 01:03:56;;;;;;;13.30;3.30;;;;;;;16.03;74.40;100998.46;111173;1211;97706;-65
2023/08/23 01:06:51;;;;;;;8.50;3.40;;;;;;;16.01;74.46;100998.41;111060;1208;138912;-65
2023/08/23 01:09:34;;;;;;;8.60;3.70;;;;;;;15.98;74.58;100999.89;111133;1210;111517;-65
2023/08/23 01:12:13;;;;;;;11.20;4.20;;;;;;;15.94;74.60;101001.04;111042;1209;140136;-65
2023/08/23 01:14:41;;;;;;;6.60;3.60;;;;;;;15.87;74.51;101003.76;111180;1211;111143;-65
2023/08/23 01:17:08;;;;;;;7.20;3.50;;;;;;;15.81;74.56;101009.73;111014;1211;138634;-65
2023/08/23 01:19:44;;;;;;;7.80;3.70;;;;;;;15.77;74.76;101011.38;111070;1208;97700;-65
2023/08/23 01:22:16;;;;;;;8.50;3.80;;;;;;;15.73;74.86;101013.05;110989;1211;138761;-65
2023/08/23 01:24:41;;;;;;;15.30;3.50;;;;;;;15.68;74.79;101014.61;110992;1208;100466;-66
2023/08/23 01:27:07;;;;;;;6.60;3.20;;;;;;;15.65;74.85;101012.13;111172;1206;97784;-65
2023/08/23 01:29:32;;;;;;;18.00;4.10;;;;;;;15.62;75.09;101012.80;111099;1208;139313;-65
2023/08/23 01:32:10;;;;;;;8.70;3.60;;;;;;;15.62;75.22;101014.09;111132;1208;98494;-65
2023/08/23 01:34:40;;;;;;;13.30;3.70;;;;;;;15.63;75.42;101015.44;110929;1208;138531;-65
2023/08/23 01:37:08;;;;;;;8.60;3.60;;;;;;;15.64;75.45;101017.72;111092;1206;107823;-65
2023/08/23 01:39:35;;;;;;;9.10;3.30;;;;;;;15.66;75.47;101023.05;111179;1208;97644;-65
2023/08/23 01:42:00;;;;;;;5.60;3.10;;;;;;;15.66;75.53;101023.73;111032;1206;138885;-65
2023/08/23 01:44:25;;;;;;;8.90;3.90;;;;;;;15.63;75.57;101026.61;111267;1207;97744;-65
2023/08/23 01:46:51;;;;;;;12.10;4.70;;;;;;;15.60;75.63;101025.90;111055;1211;138925;-65
2023/08/23 01:49:16;;;;;;;10.60;4.30;;;;;;;15.56;75.73;101026.70;111112;1211;97579;-65
2023/08/23 01:51:41;;;;;;;7.80;3.30;;;;;;;15.55;75.85;101022.40;111202;1211;97588;-65
2023/08/23 01:54:07;;;;;;;10.80;3.70;;;;;;;15.54;75.94;101020.45;111042;1208;138360;-65
2023/08/23 01:56:32;;;;;;;9.90;3.80;;;;;;;15.56;75.94;101019.66;111054;1208;97594;-65
2023/08/23 01:58:57;;;;;;;7.30;3.60;;;;;;;15.56;76.01;101024.00;111007;1211;138522;-65
2023/08/23 02:01:22;;;;;;;6.80;3.60;;;;;;;15.56;76.10;101025.41;111161;1209;97609;-65
2023/08/23 02:03:47;;;;;;;9.20;3.40;;;;;;;15.58;76.13;101021.16;111098;1208;97684;-65
2023/08/23 02:06:13;;;;;;;6.60;3.40;;;;;;;15.60;76.24;101025.43;111016;1209;139155;-65
2023/08/23 02:08:38;;;;;;;8.10;3.60;;;;;;;15.58;76.23;101023.88;111217;1208;95034;-65
2023/08/23 02:11:04;;;;;;;7.70;3.50;;;;;;;15.55;76.16;101023.10;111238;1211;139012;-65
2023/08/23 02:13:29;;;;;;;8.90;3.90;;;;;;;15.52;76.34;101024.20;111157;1211;97599;-65
2023/08/23 02:15:54;;;;;;;9.60;3.70;;;;;;;15.52;76.44;101021.89;111232;1208;97566;-65
2023/08/23 02:18:21;;;;;;;10.20;4.50;;;;;;;15.51;76.44;101021.02;111008;1211;138905;-65
2023/08/23 02:20:57;;;;;;;8.80;4.20;;;;;;;15.51;76.51;101018.14;111173;1208;97546;-65
2023/08/23 02:23:23;;;;;;;13.80;4.00;;;;;;;15.50;76.67;101013.51;111072;1211;140531;-65
2023/08/23 02:25:49;;;;;;;4.80;3.10;;;;;;;15.49;76.66;101015.52;111141;1207;97540;-66
2023/08/23 02:28:14;;;;;;;8.90;3.40;;;;;;;15.48;76.74;101023.16;111040;1211;139147;-65
2023/08/23 02:30:39;;;;;;;9.00;3.30;;;;;;;15.45;76.74;101020.98;111202;1209;97594;-65
2023/08/23 02:33:04;;;;;;;7.40;3.10;;;;;;;15.44;76.85;101019.29;111123;1207;98047;-65
2023/08/23 02:35:30;;;;;;;5.00;2.90;;;;;;;15.41;76.87;101013.14;111082;1211;139381;-65
2023/08/23 02:37:57;;;;;;;7.60;3.40;;;;;;;15.40;76.91;101014.84;111154;1209;98081;-64
2023/08/23 02:40:23;;;;;;;7.10;3.40;;;;;;;15.38;76.97;101011.16;111035;1211;138470;-64
2023/08/23 02:42:48;;;;;;;10.50;3.90;;;;;;;15.36;76.94;101012.73;111215;1208;99030;-64
2023/08/23 02:45:14;;;;;;;8.40;3.90;;;;;;;15.35;77.01;101014.61;111167;1211;97769;-64
2023/08/23 02:47:39;;;;;;;5.80;3.30;;;;;;;15.34;76.99;101014.13;110971;1211;138573;-64
2023/08/23 02:50:05;;;;;;;6.00;3.20;;;;;;;15.33;77.12;101010.36;111197;1208;97716;-64
2023/08/23 02:52:30;;;;;;;10.70;3.70;;;;;;;15.35;77.19;101009.55;110932;1208;140328;-65
2023/08/23 02:54:55;;;;;;;6.50;3.80;;;;;;;15.35;77.21;101006.65;111177;1207;98014;-64
2023/08/23 02:57:21;;;;;;;6.20;3.60;;;;;;;15.35;77.34;101008.44;111184;1209;97674;-64
2023/08/23 02:59:46;;;;;;;8.80;4.00;;;;;;;15.34;77.27;101007.98;110918;1209;138563;-64
2023/08/23 03:02:11;;;;;;;6.60;3.20;;;;;;;15.33;77.47;101007.52;111025;1211;97671;-64
2023/08/23 03:04:36;;;;;;;8.90;4.10;;;;;;;15.31;77.54;101004.92;110905;1208;140641;-64
2023/08/23 03:07:02;;;;;;;7.00;3.20;;;;;;;15.29;77.48;101002.29;111123;1211;98690;-65
2023/08/23 03:09:27;;;;;;;10.50;3.90;;;;;;;15.29;77.53;101002.33;110979;1211;97654;-65
2023/08/23 03:11:52;;;;;;;10.40;3.80;;;;;;;15.30;77.64;101001.20;111072;1211;140814;-66
2023/08/23 03:14:17;;;;;;;11.90;3.90;;;;;;;15.31;77.67;101004.02;111108;1209;98036;-66
2023/08/23 03:16:42;;;;;;;13.40;3.80;;;;;;;15.31;77.73;101004.19;110993;1209;139605;-64
2023/08/23 03:19:08;;;;;;;7.50;3.80;;;;;;;15.31;77.72;101005.61;111157;1208;96568;-64
2023/08/23 03:21:33;;;;;;;7.60;3.00;;;;;;;15.29;77.71;101009.14;111079;1211;97676;-66
2023/08/23 03:23:58;;;;;;;11.10;4.30;;;;;;;15.27;77.76;101009.09;111090;1208;138413;-64
2023/08/23 03:26:24;;;;;;;6.90;3.60;;;;;;;15.23;77.83;101011.84;111106;1211;97655;-64
2023/08/23 03:28:49;;;;;;;9.50;3.50;;;;;;;15.21;77.94;101013.74;111109;1211;139251;-64
2023/08/23 03:31:14;;;;;;;8.60;3.40;;;;;;;15.20;78.00;101015.20;111114;1209;97661;-66
2023/08/23 03:33:39;;;;;;;7.90;3.80;;;;;;;15.19;78.12;101016.56;111107;1211;99044;-64
2023/08/23 03:36:05;;;;;;;9.70;4.40;;;;;;;15.19;78.16;101019.09;111113;1209;139064;-65
2023/08/23 03:38:30;;;;;;;12.80;4.40;;;;;;;15.18;78.03;101024.55;111110;1211;97570;-64
2023/08/23 03:40:56;;;;;;;10.50;4.60;;;;;;;15.14;78.22;101022.42;111040;1207;139527;-64
2023/08/23 03:43:21;;;;;;;6.40;3.50;;;;;;;15.13;78.30;101024.83;111093;1208;97651;-65
2023/08/23 03:45:48;;;;;;;13.00;4.10;;;;;;;15.09;78.27;101025.77;111168;1209;97604;-65
2023/08/23 03:48:13;;;;;;;10.00;3.80;;;;;;;15.06;78.48;101027.92;111162;1211;140657;-65
2023/08/23 03:50:39;;;;;;;14.00;3.90;;;;;;;15.05;78.49;101027.99;111111;1211;107444;-65
2023/08/23 03:53:04;;;;;;;9.70;4.10;;;;;;;15.05;78.54;101031.60;111082;1208;138832;-65
2023/08/23 03:55:29;;;;;;;9.30;3.90;;;;;;;15.04;78.67;101027.85;111210;1211;97639;-65
2023/08/23 03:57:54;;;;;;;12.10;3.90;;;;;;;15.05;78.67;101027.42;111135;1208;97680;-65
2023/08/23 04:00:20;;;;;;;12.40;4.10;;;;;;;15.06;78.91;101029.74;110969;1209;140014;-65
2023/08/23 04:02:46;;;;;;;11.10;4.40;;;;;;;15.08;78.93;101026.39;111099;1209;97702;-65
2023/08/23 04:05:12;;;;;;;13.50;4.10;;;;;;;15.09;79.00;101024.85;110961;1211;139235;-65
2023/08/23 04:07:38;;;;;;;6.80;4.10;;;;;;;15.11;78.97;101027.42;111160;1211;98155;-65
2023/08/23 04:10:05;;;;;;;13.40;4.30;;;;;;;15.12;79.08;101027.56;111165;1211;97572;-65
2023/08/23 04:12:30;;;;;;;11.70;4.20;;;;;;;15.13;79.08;101026.42;111204;1208;97653;-65
2023/08/23 04:14:55;;;;;;;15.30;4.50;;;;;;;15.14;79.04;101029.80;111200;1211;96175;-65
2023/08/23 04:17:20;;;;;;;7.60;4.30;;;;;;;15.13;79.16;101032.90;111003;1208;138472;-65
2023/08/23 04:19:46;;;;;;;14.40;4.70;;;;;;;15.14;79.26;101035.02;111033;1206;95544;-65
2023/08/23 04:22:11;;;;;;;13.40;4.60;;;;;;;15.16;79.31;101037.41;111069;1209;140039;-65
2023/08/23 04:24:36;;;;;;;9.60;4.20;;;;;;;15.15;79.35;101038.71;111064;1208;96872;-65
2023/08/23 04:27:01;;;;;;;10.60;5.30;;;;;;;15.18;79.54;101037.31;111180;1210;97633;-65
2023/08/23 04:29:27;;;;;;;15.50;5.30;;;;;;;15.21;79.59;101037.89;110983;1211;139346;-65
2023/08/23 04:31:52;;;;;;;13.30;5.30;;;;;;;15.22;79.67;101040.12;111188;1209;97619;-65
2023/08/23 04:34:17;;;;;;;9.40;4.70;;;;;;;15.24;79.64;101040.75;110933;1206;139443;-65
2023/08/23 04:36:42;;;;;;;13.60;4.40;;;;;;;15.25;79.75;101040.14;111141;1208;97712;-65
2023/08/23 04:39:07;;;;;;;5.90;3.40;;;;;;;15.26;79.82;101038.29;111140;1212;97655;-65
2023/08/23 04:41:33;;;;;;;8.40;4.10;;;;;;;15.30;79.95;101039.18;111027;1208;139061;-65
2023/08/23 04:43:58;;;;;;;14.30;4.30;;;;;;;15.32;79.85;101036.34;111156;1211;97658;-65
2023/08/23 04:46:23;;;;;;;8.60;3.80;;;;;;;15.33;79.99;101033.23;111079;1208;139831;-65
2023/08/23 04:48:48;;;;;;;9.60;3.80;;;;;;;15.35;79.87;101037.80;111247;1208;98195;-65
2023/08/23 04:51:14;;;;;;;10.50;4.30;;;;;;;15.37;80.03;101041.27;110994;1211;96474;-65
2023/08/23 04:53:40;;;;;;;11.90;4.40;;;;;;;15.39;80.04;101039.56;110999;1211;139494;-65
2023/08/23 04:56:05;;;;;;;13.40;4.40;;;;;;;15.42;80.09;101046.02;111165;1208;97675;-65
2023/08/23 04:58:30;;;;;;;15.20;5.90;;;;;;;15.46;80.26;101046.54;110951;1211;138704;-65
2023/08/23 05:01:04;;;;;;;13.30;5.00;;;;;;;15.49;80.32;101047.60;111104;1211;97706;-64
2023/08/23 05:03:30;;;;;;;9.70;4.20;;;;;;;15.52;80.19;101048.50;111126;1209;98017;-64
2023/08/23 05:05:56;;;;;;;9.00;3.90;;;;;;;15.53;80.14;101046.83;111039;1211;138462;-65
2023/08/23 05:08:22;;;;;;;16.20;6.50;;;;;;;15.54;80.15;101046.93;111130;1208;97832;-66
2023/08/23 05:10:52;;;;;;;13.80;4.60;;;;;;;15.57;80.18;101047.73;111082;1211;141127;-64
2023/08/23 05:13:17;;;;;;;11.10;5.40;;;;;;;15.59;80.23;101048.54;111200;1208;97778;-65
2023/08/23 05:15:42;;;;;;;11.70;4.50;;;;;;;15.62;80.27;101047.77;111081;1211;97781;-64
2023/08/23 05:18:08;;;;;;;14.40;4.50;;;;;;;15.69;80.39;101047.92;111090;1211;139040;-65
2023/08/23 05:20:35;;;;;;;16.20;5.40;;;;;;;15.74;80.36;101044.70;111010;1209;97595;-65
2023/08/23 05:23:01;;;;;;;13.20;5.00;;;;;;;15.80;80.41;101044.57;111045;1212;138706;-65
2023/08/23 05:25:26;;;;;;;14.20;4.90;;;;;;;15.85;80.24;101044.23;111081;1208;98096;-64
2023/08/23 05:27:51;;;;;;;13.00;4.50;;;;;;;15.91;80.37;101044.79;111067;1211;97639;-64
2023/08/23 05:30:17;;;;;;;16.40;5.10;;;;;;;15.96;80.43;101047.38;110910;1207;139134;-64
2023/08/23 05:32:42;;;;;;;8.90;4.20;;;;;;;16.02;80.42;101054.41;111205;1209;97642;-65
2023/08/23 05:35:07;;;;;;;12.30;4.70;;;;;;;16.08;80.44;101060.91;111084;1208;138380;-67
2023/08/23 05:37:33;;;;;;;7.90;4.40;;;;;;;16.15;80.41;101063.94;111114;1211;97665;-64
2023/08/23 05:39:58;;;;;;;9.80;4.50;;;;;;;16.20;80.46;101064.84;111177;1208;96095;-64
2023/08/23 05:42:24;;;;;;;12.90;4.20;;;;;;;16.26;80.38;101065.58;111023;1209;138910;-65
2023/08/23 05:44:49;;;;;;;19.90;5.60;;;;;;;16.34;80.31;101064.22;110936;1211;97716;-65
2023/08/23 05:47:15;;;;;;;10.80;5.10;;;;;;;16.41;80.23;101060.55;110839;1211;138469;-65
2023/08/23 05:49:40;;;;;;;12.80;4.60;;;;;;;16.47;80.35;101062.30;111127;1209;98076;-65
2023/08/23 05:52:06;;;;;;;8.70;4.70;;;;;;;16.55;80.24;101060.17;111059;1209;139290;-66
2023/08/23 05:54:31;;;;;;;11.80;4.60;;;;;;;16.63;80.12;101055.94;111040;1209;97627;-64
2023/08/23 05:56:59;;;;;;;10.90;5.10;;;;;;;16.69;79.94;101053.61;111170;1209;97594;-64
2023/08/23 05:59:25;;;;;;;10.20;5.50;;;;;;;16.75;80.02;101050.85;110901;1211;138651;-65
2023/08/23 06:01:50;;;;;;;11.20;5.00;;;;;;;16.83;80.24;101056.13;111181;1209;97600;-65
2023/08/23 06:04:16;;;;;;;16.90;5.80;;;;;;;16.92;79.95;101057.73;110883;1211;138825;-64
2023/08/23 06:06:41;;;;;;;16.30;5.40;;;;;;;16.99;79.89;101059.66;111062;1211;97700;-65
2023/08/23 06:09:06;;;;;;;10.20;5.20;;;;;;;17.05;79.90;101058.56;111094;1211;98218;-68
2023/08/23 06:11:32;;;;;;;10.90;5.20;;;;;;;17.11;79.78;101056.88;110939;1211;138867;-65
2023/08/23 06:13:57;;;;;;;11.20;4.80;;;;;;;17.18;79.73;101053.93;113063;1208;95715;-66
2023/08/23 06:16:22;;;;;;;12.90;4.50;;;;;;;17.24;79.57;101052.60;113065;1208;138732;-66
2023/08/23 06:18:48;;;;;;;9.50;4.40;;;;;;;17.32;79.66;101056.29;111675;1209;97547;-65
2023/08/23 06:21:13;;;;;;;14.70;5.10;;;;;;;17.41;79.39;101059.30;111076;1211;97681;-65
2023/08/23 06:23:43;;;;;;;16.60;5.20;;;;;;;17.48;79.50;101057.54;110868;1209;138591;-65
2023/08/23 06:26:09;;;;;;;10.40;5.90;;;;;;;17.57;79.29;101053.91;110976;1208;111539;-67
2023/08/23 06:28:34;;;;;;;9.60;5.10;;;;;;;17.65;79.29;101054.27;110944;1211;138897;-65
2023/08/23 06:30:59;;;;;;;9.70;4.60;;;;;;;17.73;79.17;101060.24;111116;1206;97736;-65
2023/08/23 06:33:25;;;;;;;21.70;5.20;;;;;;;17.80;78.97;101055.23;111041;1211;97569;-66
2023/08/23 06:35:50;;;;;;;11.10;4.10;;;;;;;17.88;78.82;101056.94;110998;1208;138722;-65
2023/08/23 06:38:15;;;;;;;10.70;4.50;;;;;;;17.96;78.63;101056.75;111086;1208;97623;-64
2023/08/23 06:40:44;;;;;;;16.40;3.90;;;;;;;18.02;78.65;101056.48;111045;1208;139402;-66
2023/08/23 06:43:17;;;;;;;14.80;4.40;;;;;;;18.14;78.60;101060.21;110890;1211;97665;-65
2023/08/23 06:45:42;;;;;;;13.80;4.00;;;;;;;18.22;78.39;101062.67;110797;1212;103402;-66
2023/08/23 06:48:07;;;;;;;11.40;3.50;;;;;;;18.32;78.19;101064.17;110937;1207;138662;-65
2023/08/23 06:50:33;;;;;;;8.10;3.30;;;;;;;18.39;77.89;101064.59;111074;1211;97691;-64
2023/08/23 06:52:58;;;;;;;10.00;2.80;;;;;;;18.46;77.88;101065.88;110928;1211;140208;-67
2023/08/23 06:55:25;;;;;;;6.60;3.20;;;;;;;18.55;77.56;101061.15;111130;1208;97560;-67
2023/08/23 06:57:50;;;;;;;9.70;2.80;;;;;;;18.63;77.23;101056.05;111058;1211;100482;-65
2023/08/23 07:00:16;;;;;;;10.90;2.90;;;;;;;18.71;76.90;101052.79;110908;1208;139199;-65
2023/08/23 07:02:41;;;;;;;5.70;2.50;;;;;;;18.77;76.77;101055.23;111146;1206;96033;-68
2023/08/23 07:05:06;;;;;;;10.10;2.90;;;;;;;18.84;76.55;101054.77;111021;1208;138883;-67
2023/08/23 07:07:32;;;;;;;15.50;3.20;;;;;;;18.92;76.31;101052.02;111074;1207;97697;-67
2023/08/23 07:09:57;;;;;;;9.80;2.60;;;;;;;18.99;75.93;101051.66;111038;1211;96186;-67
2023/08/23 07:12:22;;;;;;;11.00;2.30;;;;;;;19.09;75.73;101052.16;110985;1211;138210;-66
2023/08/23 07:14:49;;;;;;;8.50;2.70;;;;;;;19.16;75.25;101055.67;111195;1211;97582;-67
2023/08/23 07:17:15;;;;;;;6.90;2.40;;;;;;;19.21;74.98;101054.62;110913;1210;138282;-66
2023/08/23 07:19:40;;;;;;;5.90;1.80;;;;;;;19.26;74.75;101053.50;111048;1211;97701;-67
2023/08/23 07:22:05;;;;;;;10.90;1.30;;;;;;;19.33;74.23;101057.16;111054;1211;138543;-65
2023/08/23 07:24:31;;;;;;;5.80;2.00;;;;;;;19.39;73.93;101057.23;110996;1210;97649;-65
2023/08/23 07:26:56;;;;;;;7.00;2.00;;;;;;;19.48;73.54;101052.65;111162;1211;99046;-67
2023/08/23 07:29:21;;;;;;;7.90;1.80;;;;;;;19.56;72.98;101053.47;110943;1209;137663;-67
2023/08/23 07:31:47;;;;;;;7.20;2.00;;;;;;;19.63;72.74;101056.23;111161;1209;97537;-64
2023/08/23 07:34:12;;;;;;;11.10;2.10;;;;;;;19.69;72.40;101059.39;111109;1211;143153;-65
2023/08/23 07:36:37;;;;;;;7.40;1.70;;;;;;;19.76;72.11;101063.56;111085;1211;97801;-66
2023/08/23 07:39:03;;;;;;;3.20;1.90;;;;;;;19.81;71.85;101068.09;111210;1211;97697;-65
2023/08/23 07:41:28;;;;;;;8.00;2.40;;;;;;;19.89;71.44;101066.27;110926;1211;138223;-65
2023/08/23 07:43:53;;;;;;;3.70;2.20;;;;;;;19.96;71.19;101070.76;111173;1208;96131;-64
2023/08/23 07:46:19;;;;;;;13.10;2.20;;;;;;;20.03;70.96;101071.16;110993;1211;137942;-64
2023/08/23 07:48:44;;;;;;;11.10;2.00;;;;;;;20.05;70.50;101070.61;111147;1208;97597;-64
2023/08/23 07:51:09;;;;;;;6.30;1.20;;;;;;;20.09;70.10;101069.76;111175;1211;97455;-66
2023/08/23 07:53:35;;;;;;;5.90;2.00;;;;;;;20.13;69.85;101070.73;110890;1211;137668;-65
2023/08/23 07:56:01;;;;;;;3.60;1.50;;;;;;;20.18;69.66;101072.77;111076;1212;97657;-64
2023/08/23 07:58:26;;;;;;;6.00;1.70;;;;;;;20.23;69.38;101077.56;111047;1211;138913;-64
2023/08/23 08:00:51;;;;;;;11.00;1.70;;;;;;;20.31;69.10;101074.60;111102;1209;97770;-64
2023/08/23 08:03:17;;;;;;;8.60;1.60;;;;;;;20.38;68.89;101071.16;111118;1210;97593;-64
2023/08/23 08:05:43;;;;;;;3.50;1.70;;;;;;;20.46;68.41;101066.06;111021;1211;138205;-64
2023/08/23 08:08:08;;;;;;;5.00;1.60;;;;;;;20.54;68.24;101066.19;111108;1209;97691;-64
2023/08/23 08:10:33;;;;;;;8.70;2.10;;;;;;;20.62;67.91;101074.77;111034;1209;138553;-64
2023/08/23 08:12:59;;;;;;;9.10;2.00;;;;;;;20.66;67.43;101072.83;111147;1211;97639;-64
2023/08/23 08:15:25;;;;;;;6.20;1.80;;;;;;;20.71;67.03;101073.48;111097;1211;97712;-64
2023/08/23 08:17:52;;;;;;;5.00;1.80;;;;;;;20.78;66.94;101074.75;110998;1210;137869;-63
2023/08/23 08:20:18;;;;;;;12.10;1.90;;;;;;;20.86;66.66;101073.57;111019;1208;96287;-64
2023/08/23 08:22:44;;;;;;;6.30;2.00;;;;;;;20.94;66.45;101076.01;111109;1208;139107;-65
2023/08/23 08:25:09;;;;;;;7.70;2.10;;;;;;;20.99;66.19;101078.48;111116;1209;96606;-64
2023/08/23 08:27:35;;;;;;;6.00;2.00;;;;;;;21.06;65.81;101076.06;111034;1211;98037;-64
2023/08/23 08:30:00;;;;;;;3.80;1.50;;;;;;;21.14;65.62;101083.27;111207;1208;137906;-64
2023/08/23 08:32:26;;;;;;;7.60;1.60;;;;;;;21.23;65.22;101082.77;111040;1209;97594;-65
2023/08/23 08:34:52;;;;;;;4.70;2.00;;;;;;;21.30;64.71;101085.06;111079;1212;138141;-65
2023/08/23 08:37:18;;;;;;;6.80;1.90;;;;;;;21.37;64.46;101085.24;111145;1210;98005;-65
2023/08/23 08:39:44;;;;;;;5.30;2.00;;;;;;;21.42;64.16;101082.69;111253;1209;97716;-65
2023/08/23 08:42:10;;;;;;;5.90;1.70;;;;;;;21.47;63.85;101084.09;111032;1208;139714;-65
2023/08/23 08:44:35;;;;;;;5.10;1.70;;;;;;;21.49;63.60;101084.63;111060;1211;97601;-65
2023/08/23 08:47:01;;;;;;;7.10;1.60;;;;;;;21.54;62.29;101089.86;111010;1209;138194;-65
2023/08/23 08:49:26;;;;;;;4.40;1.50;;;;;;;21.58;62.02;101087.20;110993;1212;98032;-66
2023/08/23 08:51:57;;;;;;;8.50;1.60;;;;;;;21.63;61.63;101083.85;111154;1211;97614;-66
2023/08/23 08:54:23;;;;;;;9.20;2.00;;;;;;;21.70;61.63;101081.62;111072;1211;139083;-64
2023/08/23 08:56:51;;;;;;;3.60;1.80;;;;;;;21.77;61.26;101082.36;111070;1208;97552;-64
2023/08/23 08:59:17;;;;;;;7.90;1.40;;;;;;;21.77;61.24;101083.21;111068;1211;138517;-64
2023/08/23 09:01:44;;;;;;;7.40;1.80;;;;;;;21.81;60.76;101087.26;111183;1212;97595;-64
2023/08/23 09:04:10;;;;;;;6.60;1.70;;;;;;;21.91;60.65;101087.73;110978;1210;137880;-63
2023/08/23 09:06:37;;;;;;;4.90;1.50;;;;;;;21.93;60.26;101092.41;111174;1211;97597;-65
2023/08/23 09:09:03;;;;;;;5.80;1.60;;;;;;;21.93;60.02;101091.36;111228;1211;97654;-65
2023/08/23 09:11:29;;;;;;;4.70;2.00;;;;;;;21.95;60.13;101092.05;111077;1211;137673;-65
2023/08/23 09:13:55;;;;;;;3.90;1.80;;;;;;;22.04;60.11;101094.66;111167;1211;107932;-65
2023/08/23 09:16:20;;;;;;;4.20;1.90;;;;;;;22.15;60.05;101092.42;110883;1211;139050;-64
2023/08/23 09:18:46;;;;;;;4.70;1.70;;;;;;;22.24;59.52;101087.23;111154;1211;97661;-64
2023/08/23 09:21:12;;;;;;;10.90;1.80;;;;;;;22.28;59.10;101084.91;111138;1211;97680;-64
2023/08/23 09:23:38;;;;;;;3.20;1.70;;;;;;;22.30;59.28;101086.34;111137;1211;139519;-64
2023/08/23 09:26:08;;;;;;;6.30;2.10;;;;;;;22.35;59.21;101093.11;111172;1211;97638;-64
2023/08/23 09:28:33;;;;;;;14.00;1.80;;;;;;;22.41;58.94;101092.78;111003;1208;138033;-64
2023/08/23 09:30:59;;;;;;;3.90;1.60;;;;;;;22.47;58.71;101086.08;111156;1212;97805;-64
2023/08/23 09:33:25;;;;;;;11.20;2.20;;;;;;;22.53;58.57;101090.05;111085;1209;97591;-64
2023/08/23 09:35:51;;;;;;;4.50;2.00;;;;;;;22.57;58.51;101092.21;111099;1211;137856;-64
2023/08/23 09:38:20;;;;;;;4.90;2.50;;;;;;;22.62;58.17;101091.47;111116;1209;97688;-63
2023/08/23 09:40:48;;;;;;;6.30;2.20;;;;;;;22.66;57.93;101091.67;111009;1212;138559;-64
2023/08/23 09:43:17;;;;;;;7.00;2.60;;;;;;;22.70;57.62;101089.52;111052;1208;100255;-64
2023/08/23 09:45:44;;;;;;;5.70;2.80;;;;;;;22.71;57.38;101084.34;111022;1209;97598;-64
2023/08/23 09:48:11;;;;;;;7.70;2.20;;;;;;;22.71;57.38;101084.66;110955;1211;138801;-64
2023/08/23 09:50:36;;;;;;;8.40;2.30;;;;;;;22.74;57.07;101077.84;111062;1211;97568;-66
2023/08/23 09:53:10;;;;;;;9.10;2.50;;;;;;;22.81;57.17;101071.23;111169;1212;138206;-66
2023/08/23 09:55:37;;;;;;;5.60;2.30;;;;;;;22.93;57.33;101075.30;111194;1211;97686;-66
2023/08/23 09:58:04;;;;;;;4.70;2.10;;;;;;;23.01;57.00;101079.31;111069;1211;99211;-64
2023/08/23 10:00:29;;;;;;;5.60;1.80;;;;;;;23.06;56.17;101082.52;110920;1206;138689;-63
2023/08/23 10:02:58;;;;;;;3.60;1.70;;;;;;;23.08;55.81;101080.19;111160;1211;97609;-64
2023/08/23 10:05:25;;;;;;;8.60;2.20;;;;;;;23.09;55.81;101080.22;110948;1210;139136;-63
2023/08/23 10:07:53;;;;;;;4.50;1.80;;;;;;;23.13;55.60;101072.59;111204;1211;97627;-66
2023/08/23 10:10:18;;;;;;;9.90;1.70;;;;;;;23.16;55.69;101071.96;110973;1211;140245;-64
2023/08/23 10:12:51;;;;;;;7.80;2.10;;;;;;;23.20;55.95;101064.67;111145;1208;96478;-66
2023/08/23 10:15:20;;;;;;;9.30;2.20;;;;;;;23.29;55.71;101067.30;110994;1219;100296;-63
2023/08/23 10:17:47;;;;;;;4.30;1.90;;;;;;;23.37;55.44;101064.96;110888;1210;137852;-63
2023/08/23 10:20:12;;;;;;;7.40;1.70;;;;;;;23.45;55.17;101066.76;111255;1210;97570;-64
2023/08/23 10:22:40;;;;;;;6.30;1.60;;;;;;;23.49;55.00;101065.09;111012;1210;138583;-64
2023/08/23 10:25:19;;;;;;;5.70;1.30;;;;;;;23.52;54.60;101063.02;111079;1211;99179;-64
2023/08/23 10:27:46;;;;;;;4.70;1.70;;;;;;;23.61;54.46;101063.63;111126;1209;97657;-64
2023/08/23 10:30:21;;;;;;;5.80;1.50;;;;;;;23.69;53.59;101063.48;110978;1212;138273;-64
2023/08/23 10:32:47;;;;;;;5.30;1.80;;;;;;;23.84;53.67;101057.20;111048;1209;102428;-64
2023/08/23 10:35:23;;;;;;;2.60;1.70;;;;;;;23.99;53.88;101056.80;111009;1209;140578;-63
2023/08/23 10:37:50;;;;;;;5.30;1.70;;;;;;;24.16;53.62;101052.86;111037;1211;99033;-62
2023/08/23 10:40:18;;;;;;;8.20;1.40;;;;;;;24.32;53.45;101052.48;110916;1211;139114;-63
2023/08/23 10:42:44;;;;;;;10.10;1.80;;;;;;;24.40;53.31;101050.27;111127;1210;97665;-63
2023/08/23 10:45:10;;;;;;;4.40;1.60;;;;;;;24.45;52.82;101051.23;111053;1208;97623;-63
2023/08/23 10:47:36;;;;;;;6.10;1.90;;;;;;;24.34;52.74;101047.59;110826;1209;138267;-63
2023/08/23 10:50:06;;;;;;;6.80;1.50;;;;;;;24.23;52.66;101047.25;110840;1209;96676;-63
2023/08/23 10:52:32;;;;;;;4.30;1.40;;;;;;;24.20;52.61;101042.57;110756;1209;138434;-63
2023/08/23 10:54:57;;;;;;;5.50;0.90;;;;;;;24.23;52.52;101040.18;111252;1209;97757;-63
2023/08/23 10:57:23;;;;;;;5.00;2.10;;;;;;;24.27;52.06;101033.38;111120;1206;97651;-63
2023/08/23 10:59:49;;;;;;;7.00;1.40;;;;;;;24.32;51.73;101032.56;110965;1209;137839;-63
2023/08/23 11:02:15;;;;;;;6.00;1.60;;;;;;;24.35;51.53;101031.90;111085;1207;97636;-63
2023/08/23 11:04:41;;;;;;;5.50;1.50;;;;;;;24.38;51.19;101030.89;111092;1212;138367;-63
2023/08/23 11:07:06;;;;;;;5.10;1.50;;;;;;;24.34;51.06;101029.89;111148;1210;99380;-63